Weather at Genböle Airfield UL

Public forecast

Using degrees Celsius for public forecast. Weather courtesy of forecast.io.

Closest aviation weather report (METAR) to Genböle Airfield UL

Closest report is Turku Airport, 26.8 nm (49.6 km) NNW.

2024/06/22 06:50 (retrieved 17 minutes ago)

EFTU 220650Z AUTO 35004KT 270V080 CAVOK 18/07 Q1013

Closest aviation forecast (TAF) to Genböle Airfield UL

Closest forecast is Turku Airport, 26.8 nm (49.6 km) NNW.

2024/06/22 06:42 (retrieved 25 minutes ago)

TAF EFTU 220522Z 2206/2306 32005KT CAVOK TEMPO 2214/2217 24010KT